createdAt,value
2023-05-19T00:00:37.180Z,14.74
2023-05-19T00:03:27.167Z,14.69
2023-05-19T00:05:59.864Z,14.69
2023-05-19T00:08:35.422Z,14.67
2023-05-19T00:11:08.688Z,14.65
2023-05-19T00:13:41.624Z,14.62
2023-05-19T00:16:17.113Z,14.61
2023-05-19T00:18:49.586Z,14.52
2023-05-19T00:21:22.121Z,14.58
2023-05-19T00:23:54.796Z,14.57
2023-05-19T00:26:28.240Z,14.55
2023-05-19T00:29:04.592Z,14.53
2023-05-19T00:31:36.865Z,14.47
2023-05-19T00:34:09.070Z,14.39
2023-05-19T00:36:41.600Z,14.46
2023-05-19T00:39:14.252Z,14.43
2023-05-19T00:41:47.555Z,14.40
2023-05-19T00:44:19.833Z,14.39
2023-05-19T00:46:52.029Z,14.37
2023-05-19T00:49:24.259Z,14.27
2023-05-19T00:51:56.818Z,14.33
2023-05-19T00:54:29.551Z,14.32
2023-05-19T00:57:01.845Z,14.30
2023-05-19T00:59:34.194Z,14.28
2023-05-19T01:02:06.980Z,14.26
2023-05-19T01:04:41.988Z,14.24
2023-05-19T01:07:14.234Z,14.21
2023-05-19T01:09:47.327Z,14.18
2023-05-19T01:12:20.247Z,14.16
2023-05-19T01:14:53.113Z,14.13
2023-05-19T01:17:34.355Z,14.11
2023-05-19T01:20:22.887Z,14.05
2023-05-19T01:23:25.044Z,14.03
2023-05-19T01:26:31.210Z,14.00
2023-05-19T01:29:17.444Z,13.97
2023-05-19T01:31:51.532Z,13.97
2023-05-19T01:34:24.789Z,13.92
2023-05-19T01:36:59.424Z,13.89
2023-05-19T01:39:32.161Z,13.88
2023-05-19T01:42:05.519Z,13.88
2023-05-19T01:44:38.741Z,13.88
2023-05-19T01:47:11.993Z,13.80
2023-05-19T01:49:44.276Z,13.75
2023-05-19T01:52:16.308Z,13.82
2023-05-19T01:54:48.676Z,13.81
2023-05-19T01:57:27.112Z,13.81
2023-05-19T02:00:12.724Z,13.79
2023-05-19T02:03:02.487Z,13.76
2023-05-19T02:05:39.825Z,13.75
2023-05-19T02:08:31.487Z,13.72
2023-05-19T02:11:08.800Z,13.69
2023-05-19T02:13:51.425Z,13.66
2023-05-19T02:16:28.686Z,13.64
2023-05-19T02:19:01.160Z,13.53
2023-05-19T02:21:33.506Z,13.56
2023-05-19T02:24:06.989Z,13.55
2023-05-19T02:26:39.495Z,13.52
2023-05-19T02:29:11.843Z,13.51
2023-05-19T02:31:44.345Z,13.49
2023-05-19T02:34:16.962Z,13.46
2023-05-19T02:36:49.967Z,13.43
2023-05-19T02:39:22.434Z,13.40
2023-05-19T02:41:55.048Z,13.30
2023-05-19T02:44:27.716Z,13.26
2023-05-19T02:47:00.598Z,13.29
2023-05-19T02:49:36.150Z,13.16
2023-05-19T02:52:09.183Z,13.25
2023-05-19T02:54:41.767Z,13.22
2023-05-19T02:57:14.456Z,13.19
2023-05-19T02:59:47.003Z,13.06
2023-05-19T03:02:19.698Z,13.10
2023-05-19T03:04:52.477Z,13.08
2023-05-19T03:07:25.018Z,13.08
2023-05-19T03:09:57.400Z,13.07
2023-05-19T03:12:29.601Z,13.07
2023-05-19T03:15:02.258Z,13.06
2023-05-19T03:17:34.810Z,13.05
2023-05-19T03:20:08.797Z,13.04
2023-05-19T03:22:40.913Z,13.03
2023-05-19T03:25:13.377Z,13.03
2023-05-19T03:27:45.769Z,13.05
2023-05-19T03:30:18.373Z,13.05
2023-05-19T03:33:11.278Z,13.05
2023-05-19T03:35:45.448Z,13.06
2023-05-19T03:38:17.910Z,12.91
2023-05-19T03:40:56.188Z,13.07
2023-05-19T03:43:28.500Z,13.10
2023-05-19T03:46:03.961Z,13.12
2023-05-19T03:48:59.052Z,13.06
2023-05-19T03:51:58.283Z,13.17
2023-05-19T03:54:53.686Z,13.20
2023-05-19T03:57:25.997Z,13.24
2023-05-19T03:59:58.979Z,13.28
2023-05-19T04:02:32.104Z,13.30
2023-05-19T04:05:05.157Z,13.35
2023-05-19T04:07:37.426Z,13.37
2023-05-19T04:10:11.210Z,13.39
2023-05-19T04:12:43.638Z,13.46
2023-05-19T04:15:16.207Z,13.52
2023-05-19T04:17:48.829Z,13.59
2023-05-19T04:20:21.314Z,13.64
2023-05-19T04:22:53.721Z,13.71
2023-05-19T04:25:28.254Z,13.68
2023-05-19T04:28:01.060Z,13.80
2023-05-19T04:30:34.431Z,13.86
2023-05-19T04:33:07.871Z,13.93
2023-05-19T04:35:40.855Z,14.00
2023-05-19T04:38:13.469Z,14.02
2023-05-19T04:40:46.293Z,14.07
2023-05-19T04:43:19.410Z,14.02
2023-05-19T04:45:51.780Z,14.14
2023-05-19T04:48:26.222Z,14.20
2023-05-19T04:50:58.643Z,14.23
2023-05-19T04:53:31.478Z,14.26
2023-05-19T04:56:04.802Z,14.32
2023-05-19T04:58:40.090Z,14.36
2023-05-19T05:01:15.913Z,14.41
2023-05-19T05:03:48.554Z,14.46
2023-05-19T05:06:21.405Z,14.51
2023-05-19T05:08:54.328Z,14.54
2023-05-19T05:11:27.772Z,14.57
2023-05-19T05:14:01.696Z,14.62
2023-05-19T05:16:35.345Z,14.67
2023-05-19T05:19:10.269Z,14.74
2023-05-19T05:21:43.762Z,14.78
2023-05-19T05:24:18.085Z,14.83
2023-05-19T05:26:55.195Z,14.89
2023-05-19T05:29:27.693Z,14.96
2023-05-19T05:32:00.006Z,15.01
2023-05-19T05:34:32.722Z,15.08
2023-05-19T05:37:05.438Z,15.13
2023-05-19T05:39:38.506Z,15.20
2023-05-19T05:42:12.134Z,15.25
2023-05-19T05:44:44.547Z,15.32
2023-05-19T05:47:17.906Z,15.35
2023-05-19T05:49:53.001Z,15.40
2023-05-19T05:52:31.263Z,15.39
2023-05-19T05:55:07.284Z,15.43
2023-05-19T05:57:41.872Z,15.55
2023-05-19T06:00:16.468Z,15.61
2023-05-19T06:02:52.813Z,15.66
2023-05-19T06:05:25.472Z,15.74
2023-05-19T06:07:59.042Z,15.83
2023-05-19T06:10:32.805Z,15.88
2023-05-19T06:13:05.623Z,15.93
2023-05-19T06:15:39.386Z,15.94
2023-05-19T06:18:31.227Z,16.09
2023-05-19T06:21:03.696Z,16.10
2023-05-19T06:23:36.316Z,16.16
2023-05-19T06:26:09.338Z,16.19
2023-05-19T06:28:41.527Z,16.23
2023-05-19T06:31:13.883Z,16.26
2023-05-19T06:34:01.331Z,16.31
2023-05-19T06:36:35.354Z,16.33
2023-05-19T06:39:07.795Z,16.39
2023-05-19T06:41:41.018Z,16.44
2023-05-19T06:44:13.597Z,16.48
2023-05-19T06:46:46.529Z,16.56
2023-05-19T06:49:19.399Z,16.65
2023-05-19T06:51:53.704Z,16.64
2023-05-19T06:54:26.982Z,16.76
2023-05-19T06:56:59.131Z,16.83
2023-05-19T06:59:31.546Z,16.88
2023-05-19T07:02:04.870Z,16.92
2023-05-19T07:04:39.967Z,16.96
2023-05-19T07:07:12.783Z,16.99
2023-05-19T07:09:45.021Z,17.03
2023-05-19T07:12:17.400Z,17.01
2023-05-19T07:14:50.011Z,17.07
2023-05-19T07:17:22.832Z,17.14
2023-05-19T07:19:55.168Z,17.09
2023-05-19T07:22:27.594Z,17.25
2023-05-19T07:25:00.958Z,17.32
2023-05-19T07:27:33.433Z,17.38
2023-05-19T07:30:06.152Z,17.44
2023-05-19T07:32:38.435Z,17.48
2023-05-19T07:35:11.146Z,17.50
2023-05-19T07:37:43.355Z,17.53
2023-05-19T07:40:16.525Z,17.54
2023-05-19T07:42:51.269Z,17.58
2023-05-19T07:45:23.437Z,17.60
2023-05-19T07:47:56.338Z,17.64
2023-05-19T07:50:28.574Z,17.69
2023-05-19T07:53:01.446Z,17.73
2023-05-19T07:55:33.948Z,17.78
2023-05-19T07:58:06.219Z,17.85
2023-05-19T08:00:38.403Z,17.92
2023-05-19T08:03:10.905Z,17.83
2023-05-19T08:05:43.356Z,18.05
2023-05-19T08:08:16.968Z,18.13
2023-05-19T08:10:49.462Z,18.19
2023-05-19T08:13:21.980Z,18.25
2023-05-19T08:15:59.572Z,18.31
2023-05-19T08:18:31.958Z,18.35
2023-05-19T08:21:04.412Z,18.37
2023-05-19T08:23:37.480Z,18.41
2023-05-19T08:26:10.133Z,18.45
2023-05-19T08:28:42.628Z,18.40
2023-05-19T08:31:14.778Z,18.47
2023-05-19T08:33:47.266Z,18.51
2023-05-19T08:36:19.414Z,18.57
2023-05-19T08:38:52.235Z,18.61
2023-05-19T08:41:24.772Z,18.66
2023-05-19T08:43:57.194Z,18.72
2023-05-19T08:46:30.419Z,18.75
2023-05-19T08:49:12.717Z,18.77
2023-05-19T08:51:55.136Z,18.80
2023-05-19T08:54:33.902Z,18.82
2023-05-19T08:57:07.989Z,18.79
2023-05-19T08:59:40.935Z,18.85
2023-05-19T09:02:15.201Z,18.89
2023-05-19T09:04:48.677Z,18.93
2023-05-19T09:07:22.583Z,18.98
2023-05-19T09:09:54.931Z,19.02
2023-05-19T09:12:27.360Z,19.10
2023-05-19T09:15:00.473Z,19.16
2023-05-19T09:17:33.185Z,19.22
2023-05-19T09:20:08.350Z,19.25
2023-05-19T09:22:47.339Z,19.29
2023-05-19T09:25:23.926Z,19.33
2023-05-19T09:27:56.747Z,19.40
2023-05-19T09:30:29.126Z,19.46
2023-05-19T09:33:01.980Z,19.48
2023-05-19T09:35:35.641Z,19.51
2023-05-19T09:38:08.058Z,19.53
2023-05-19T09:40:40.566Z,19.55
2023-05-19T09:43:13.802Z,19.51
2023-05-19T09:45:46.283Z,19.52
2023-05-19T09:48:18.618Z,19.50
2023-05-19T09:50:51.963Z,19.41
2023-05-19T09:53:25.555Z,19.42
2023-05-19T09:56:00.123Z,19.40
2023-05-19T09:58:36.656Z,19.39
2023-05-19T10:01:09.856Z,19.37
2023-05-19T10:03:42.668Z,19.32
2023-05-19T10:06:15.715Z,19.29
2023-05-19T10:08:49.276Z,19.30
2023-05-19T10:11:21.948Z,19.35
2023-05-19T10:13:54.611Z,19.35
2023-05-19T10:16:29.181Z,19.34
2023-05-19T10:19:03.421Z,19.35
2023-05-19T10:21:36.684Z,19.32
2023-05-19T10:24:10.852Z,19.23
2023-05-19T10:26:45.484Z,19.18
2023-05-19T10:29:21.961Z,19.14
2023-05-19T10:31:56.533Z,19.11
2023-05-19T10:34:50.472Z,19.07
2023-05-19T10:37:33.232Z,18.91
2023-05-19T10:40:12.288Z,19.01
2023-05-19T10:42:54.936Z,18.99
2023-05-19T10:45:32.070Z,18.92
2023-05-19T10:48:04.844Z,18.89
2023-05-19T10:50:39.782Z,18.86
2023-05-19T10:53:15.204Z,18.87
2023-05-19T10:55:53.612Z,18.88
2023-05-19T10:58:52.336Z,18.86
2023-05-19T11:01:31.099Z,18.90
2023-05-19T11:04:09.305Z,18.84
2023-05-19T11:06:41.926Z,18.95
2023-05-19T11:09:16.782Z,19.04
2023-05-19T11:11:50.816Z,19.09
2023-05-19T11:14:24.471Z,19.09
2023-05-19T11:17:00.238Z,19.09
2023-05-19T11:19:34.020Z,19.09
2023-05-19T11:22:14.137Z,19.10
2023-05-19T11:24:50.649Z,19.03
2023-05-19T11:27:31.536Z,19.11
2023-05-19T11:30:14.534Z,19.11
2023-05-19T11:32:50.207Z,19.10
2023-05-19T11:35:22.768Z,19.14
2023-05-19T11:37:57.681Z,19.30
2023-05-19T11:40:30.430Z,19.37
2023-05-19T11:43:03.030Z,19.41
2023-05-19T11:45:36.019Z,19.48
2023-05-19T11:48:12.270Z,19.60
2023-05-19T11:50:46.956Z,19.71
2023-05-19T11:53:20.135Z,19.75
2023-05-19T11:55:52.758Z,19.83
2023-05-19T11:58:29.270Z,19.84
2023-05-19T12:01:06.907Z,19.99
2023-05-19T12:03:39.740Z,20.06
2023-05-19T12:06:13.669Z,20.06
2023-05-19T12:08:46.293Z,20.12
2023-05-19T12:11:20.056Z,20.11
2023-05-19T12:13:54.688Z,20.07
2023-05-19T12:16:35.699Z,20.03
2023-05-19T12:19:09.622Z,19.95
2023-05-19T12:21:42.747Z,19.87
2023-05-19T12:24:15.112Z,19.76
2023-05-19T12:26:47.498Z,19.67
2023-05-19T12:29:19.745Z,19.59
2023-05-19T12:31:52.153Z,19.45
2023-05-19T12:34:25.761Z,19.30
2023-05-19T12:36:58.330Z,19.22
2023-05-19T12:39:31.497Z,19.20
2023-05-19T12:42:10.965Z,19.18
2023-05-19T12:44:47.432Z,19.15
2023-05-19T12:47:21.190Z,19.08
2023-05-19T12:50:04.541Z,18.99
2023-05-19T12:52:43.194Z,18.96
2023-05-19T12:55:16.597Z,18.80
2023-05-19T12:57:56.999Z,18.80
2023-05-19T13:00:31.269Z,18.81
2023-05-19T13:03:05.963Z,18.76
2023-05-19T13:05:40.191Z,18.72
2023-05-19T13:08:13.919Z,18.67
2023-05-19T13:10:49.233Z,18.64
2023-05-19T13:13:22.087Z,18.63
2023-05-19T13:15:54.418Z,18.60
2023-05-19T13:18:27.692Z,18.57
2023-05-19T13:20:59.982Z,18.59
2023-05-19T13:23:32.538Z,18.60
2023-05-19T13:26:06.468Z,18.60
2023-05-19T13:28:38.678Z,18.59
2023-05-19T13:31:11.002Z,18.50
2023-05-19T13:33:43.672Z,18.55
2023-05-19T13:36:16.391Z,18.54
2023-05-19T13:38:49.012Z,18.47
2023-05-19T13:41:26.153Z,18.57
2023-05-19T13:43:59.889Z,18.63
2023-05-19T13:46:44.183Z,18.63
2023-05-19T13:49:18.462Z,18.66
2023-05-19T13:51:50.899Z,18.69
2023-05-19T13:54:23.312Z,18.70
2023-05-19T13:56:55.984Z,18.75
2023-05-19T13:59:29.761Z,18.80
2023-05-19T14:02:02.894Z,18.83
2023-05-19T14:04:37.813Z,18.87
2023-05-19T14:07:09.733Z,18.89
2023-05-19T14:09:42.029Z,18.91
2023-05-19T14:12:15.472Z,18.93
2023-05-19T14:14:49.105Z,18.97
2023-05-19T14:17:21.476Z,18.97
2023-05-19T14:19:53.687Z,18.97
2023-05-19T14:22:25.966Z,18.98
2023-05-19T14:24:58.411Z,18.72
2023-05-19T14:27:30.668Z,18.92
2023-05-19T14:30:03.093Z,18.87
2023-05-19T14:32:35.377Z,18.99
2023-05-19T14:35:09.238Z,18.99
2023-05-19T14:37:41.804Z,18.96
2023-05-19T14:40:15.720Z,18.91
2023-05-19T14:42:48.075Z,18.90
2023-05-19T14:45:20.825Z,18.86
2023-05-19T14:47:53.071Z,18.81
2023-05-19T14:50:27.311Z,18.77
2023-05-19T14:53:00.934Z,18.72
2023-05-19T14:55:33.398Z,18.70
2023-05-19T14:58:15.792Z,18.69
2023-05-19T15:00:52.254Z,18.65
2023-05-19T15:03:24.972Z,18.59
2023-05-19T15:05:57.445Z,18.49
2023-05-19T15:08:29.950Z,18.51
2023-05-19T15:11:02.291Z,18.51
2023-05-19T15:13:34.493Z,18.46
2023-05-19T15:16:17.626Z,18.42
2023-05-19T15:18:51.666Z,18.34
2023-05-19T15:21:24.072Z,18.27
2023-05-19T15:23:56.428Z,18.25
2023-05-19T15:26:29.815Z,18.23
2023-05-19T15:29:02.065Z,18.17
2023-05-19T15:31:36.603Z,18.16
2023-05-19T15:34:10.502Z,18.13
2023-05-19T15:36:43.223Z,18.13
2023-05-19T15:39:15.956Z,18.10
2023-05-19T15:41:48.228Z,18.08
2023-05-19T15:44:20.800Z,18.03
2023-05-19T15:46:53.295Z,17.99
2023-05-19T15:49:26.294Z,17.94
2023-05-19T15:51:58.816Z,17.99
2023-05-19T15:54:31.303Z,17.92
2023-05-19T15:57:03.542Z,17.94
2023-05-19T15:59:35.706Z,17.87
2023-05-19T16:02:08.492Z,17.86
2023-05-19T16:04:40.781Z,17.89
2023-05-19T16:07:13.547Z,17.85
2023-05-19T16:09:46.074Z,17.82
2023-05-19T16:12:18.835Z,17.81
2023-05-19T16:14:51.507Z,17.80
2023-05-19T16:17:23.805Z,17.77
2023-05-19T16:19:56.146Z,17.71
2023-05-19T16:22:30.266Z,17.73
2023-05-19T16:25:02.859Z,17.77
2023-05-19T16:27:35.243Z,17.64
2023-05-19T16:30:09.443Z,17.61
2023-05-19T16:32:41.768Z,17.62
2023-05-19T16:35:14.511Z,17.60
2023-05-19T16:37:47.330Z,17.45
2023-05-19T16:40:20.018Z,17.53
2023-05-19T16:42:53.586Z,17.51
2023-05-19T16:45:26.553Z,17.46
2023-05-19T16:47:58.872Z,17.48
2023-05-19T16:50:32.060Z,17.44
2023-05-19T16:53:05.996Z,17.50
2023-05-19T16:55:38.458Z,17.50
2023-05-19T16:58:12.108Z,17.50
2023-05-19T17:00:44.774Z,17.50
2023-05-19T17:03:17.379Z,17.45
2023-05-19T17:05:49.652Z,17.46
2023-05-19T17:08:22.057Z,17.43
2023-05-19T17:10:55.872Z,17.45
2023-05-19T17:13:29.727Z,17.44
2023-05-19T17:16:01.978Z,17.42
2023-05-19T17:18:34.455Z,17.32
2023-05-19T17:21:07.000Z,17.38
2023-05-19T17:23:39.491Z,17.33
2023-05-19T17:26:12.426Z,17.33
2023-05-19T17:28:44.946Z,17.33
2023-05-19T17:31:18.191Z,17.32
2023-05-19T17:33:50.803Z,17.32
2023-05-19T17:36:23.139Z,17.29
2023-05-19T17:38:55.729Z,17.29
2023-05-19T17:41:28.416Z,17.27
2023-05-19T17:44:00.831Z,17.28
2023-05-19T17:46:34.791Z,17.24
2023-05-19T17:49:07.453Z,17.15
2023-05-19T17:51:41.327Z,17.20
2023-05-19T17:54:14.413Z,17.17
2023-05-19T17:56:47.187Z,17.14
2023-05-19T17:59:20.789Z,17.07
2023-05-19T18:01:54.230Z,17.06
2023-05-19T18:04:27.540Z,17.06
2023-05-19T18:07:01.858Z,17.05
2023-05-19T18:09:38.123Z,17.04
2023-05-19T18:12:11.270Z,17.03
2023-05-19T18:14:43.716Z,16.99
2023-05-19T18:17:16.085Z,16.97
2023-05-19T18:19:49.452Z,16.96
2023-05-19T18:22:22.435Z,16.92
2023-05-19T18:24:55.016Z,16.86
2023-05-19T18:27:28.348Z,16.88
2023-05-19T18:30:00.821Z,16.86
2023-05-19T18:32:34.702Z,16.87
2023-05-19T18:35:08.414Z,16.83
2023-05-19T18:37:40.913Z,16.76
2023-05-19T18:40:13.953Z,16.78
2023-05-19T18:42:47.869Z,16.80
2023-05-19T18:45:20.159Z,16.64
2023-05-19T18:47:52.509Z,16.74
2023-05-19T18:50:25.052Z,16.66
2023-05-19T18:52:57.201Z,16.73
2023-05-19T18:55:29.511Z,16.61
2023-05-19T18:58:02.064Z,16.65
2023-05-19T19:00:36.128Z,16.68
2023-05-19T19:03:10.438Z,16.61
2023-05-19T19:05:42.850Z,16.68
2023-05-19T19:08:15.536Z,16.59
2023-05-19T19:10:50.669Z,16.53
2023-05-19T19:13:23.652Z,16.61
2023-05-19T19:15:56.185Z,16.61
2023-05-19T19:18:28.701Z,16.61
2023-05-19T19:21:02.690Z,16.61
2023-05-19T19:23:35.512Z,16.60
2023-05-19T19:26:08.608Z,16.59
2023-05-19T19:28:40.894Z,16.56
2023-05-19T19:31:13.074Z,16.55
2023-05-19T19:33:45.266Z,16.48
2023-05-19T19:36:17.620Z,16.55
2023-05-19T19:38:50.275Z,16.56
2023-05-19T19:41:22.883Z,16.56
2023-05-19T19:43:55.429Z,16.55
2023-05-19T19:46:27.840Z,16.50
2023-05-19T19:49:02.548Z,16.52
2023-05-19T19:51:36.177Z,16.53
2023-05-19T19:54:08.736Z,16.53
2023-05-19T19:56:41.196Z,16.53
2023-05-19T19:59:14.032Z,16.48
2023-05-19T20:01:46.374Z,16.52
2023-05-19T20:04:18.973Z,16.51
2023-05-19T20:06:51.639Z,16.50
2023-05-19T20:09:23.972Z,16.48
2023-05-19T20:11:56.284Z,16.49
2023-05-19T20:14:29.171Z,16.51
2023-05-19T20:17:01.398Z,16.51
2023-05-19T20:19:34.596Z,16.49
2023-05-19T20:22:07.312Z,16.49
2023-05-19T20:24:39.781Z,16.49
2023-05-19T20:27:12.619Z,16.46
2023-05-19T20:29:47.064Z,16.46
2023-05-19T20:32:20.482Z,16.45
2023-05-19T20:34:52.929Z,16.45
2023-05-19T20:37:25.420Z,16.44
2023-05-19T20:39:57.735Z,16.47
2023-05-19T20:42:30.388Z,16.46
2023-05-19T20:45:03.185Z,16.46
2023-05-19T20:47:35.508Z,16.45
2023-05-19T20:50:09.905Z,16.45
2023-05-19T20:52:42.362Z,16.41
2023-05-19T20:55:14.888Z,16.41
2023-05-19T20:57:47.135Z,16.40
2023-05-19T21:00:20.528Z,16.36
2023-05-19T21:02:52.967Z,16.38
2023-05-19T21:05:26.001Z,16.33
2023-05-19T21:07:58.489Z,16.39
2023-05-19T21:10:31.266Z,16.38
2023-05-19T21:13:03.978Z,16.39
2023-05-19T21:15:36.362Z,16.39
2023-05-19T21:18:08.792Z,16.39
2023-05-19T21:20:41.559Z,16.30
2023-05-19T21:23:13.964Z,16.37
2023-05-19T21:25:46.719Z,16.34
2023-05-19T21:28:19.054Z,16.36
2023-05-19T21:30:51.942Z,16.36
2023-05-19T21:33:24.240Z,16.37
2023-05-19T21:35:58.337Z,16.37
2023-05-19T21:38:30.672Z,16.36
2023-05-19T21:41:02.957Z,16.36
2023-05-19T21:43:35.444Z,16.34
2023-05-19T21:46:08.178Z,16.34
2023-05-19T21:48:40.461Z,16.35
2023-05-19T21:51:12.709Z,16.35
2023-05-19T21:53:44.891Z,16.36
2023-05-19T21:56:17.576Z,16.34
2023-05-19T21:58:49.718Z,16.35
2023-05-19T22:01:22.370Z,16.35
2023-05-19T22:03:55.410Z,16.36
2023-05-19T22:06:27.717Z,16.35
2023-05-19T22:09:01.226Z,16.33
2023-05-19T22:11:33.605Z,16.14
2023-05-19T22:14:05.894Z,16.30
2023-05-19T22:16:38.233Z,16.30
2023-05-19T22:19:10.890Z,16.28
2023-05-19T22:21:43.573Z,16.28
2023-05-19T22:24:18.632Z,16.27
2023-05-19T22:26:50.939Z,16.26
2023-05-19T22:29:23.146Z,16.22
2023-05-19T22:31:55.942Z,16.27
2023-05-19T22:34:28.253Z,16.26
2023-05-19T22:37:00.591Z,16.25
2023-05-19T22:39:32.794Z,16.25
2023-05-19T22:42:05.567Z,16.25
2023-05-19T22:44:37.952Z,16.25
2023-05-19T22:47:13.645Z,16.22
2023-05-19T22:49:46.117Z,16.23
2023-05-19T22:52:18.384Z,16.24
2023-05-19T22:54:50.704Z,16.22
2023-05-19T22:57:23.416Z,16.21
2023-05-19T22:59:56.170Z,16.19
2023-05-19T23:02:29.645Z,16.19
2023-05-19T23:05:02.049Z,16.19
2023-05-19T23:07:34.349Z,16.18
2023-05-19T23:10:07.630Z,16.17
2023-05-19T23:12:40.157Z,16.20
2023-05-19T23:15:14.204Z,16.20
2023-05-19T23:17:46.910Z,16.19
2023-05-19T23:20:19.268Z,16.19
2023-05-19T23:22:51.579Z,16.17
2023-05-19T23:25:23.878Z,16.09
2023-05-19T23:27:56.449Z,16.14
2023-05-19T23:30:30.420Z,16.16
2023-05-19T23:33:02.600Z,16.14
2023-05-19T23:35:35.274Z,16.15
2023-05-19T23:38:07.835Z,16.17
2023-05-19T23:40:40.076Z,16.16
2023-05-19T23:43:12.614Z,16.17
2023-05-19T23:45:45.156Z,16.09
2023-05-19T23:48:17.631Z,16.16
2023-05-19T23:50:49.786Z,16.16
2023-05-19T23:53:22.166Z,16.14
2023-05-19T23:55:55.312Z,16.11
2023-05-19T23:58:28.480Z,16.13
